Time,TemperatureF,DewpointF,PressureIn,WindDirection,WindDirectionDegrees,WindSpeedMPH,WindSpeedGustMPH,Humidity,HourlyPrecipIn,Conditions,Clouds,dailyrainin,SoftwareType,DateUTC
2013-01-14 00:00:00,2.3,-8.4,27.36,North,0,1.1,1.1,60,0.00,RA,,0.00,WeatherDisplay:10.37,2013-01-14 06:00:00,
2013-01-14 00:05:00,2.3,-8.4,27.36,North,0,1.1,1.1,60,0.00,RA,,0.00,WeatherDisplay:10.37,2013-01-14 06:05:00,
2013-01-14 00:10:00,1.9,-8.8,27.36,North,0,0.0,0.0,60,0.00,CLR,,0.00,WeatherDisplay:10.37,2013-01-14 06:10:00,
2013-01-14 00:15:00,1.8,-8.9,27.36,North,0,0.0,0.0,60,0.00,CLR,,0.00,WeatherDisplay:10.37,2013-01-14 06:15:00,
2013-01-14 00:20:00,1.8,-8.9,27.37,North,0,0.0,0.0,60,0.00,CLR,,0.00,WeatherDisplay:10.37,2013-01-14 06:20:00,
2013-01-14 00:25:00,1.6,-9.1,27.36,North,0,0.0,0.0,60,0.00,CLR,,0.00,WeatherDisplay:10.37,2013-01-14 06:25:00,
2013-01-14 00:30:00,1.6,-9.1,27.36,North,0,0.0,0.0,60,0.00,CLR,,0.00,WeatherDisplay:10.37,2013-01-14 06:30:00,
2013-01-14 00:35:00,1.4,-9.3,27.36,North,0,0.0,0.0,60,0.00,CLR,,0.00,WeatherDisplay:10.37,2013-01-14 06:35:00,
2013-01-14 00:40:00,1.4,-9.3,27.37,North,0,0.0,0.0,60,0.06,CLR,,0.00,WeatherDisplay:10.37,2013-01-14 06:40:00,
2013-01-14 00:45:00,1.2,-10.9,27.37,North,0,0.0,0.0,56,0.00,CLR,,0.00,WeatherDisplay:10.37,2013-01-14 06:45:00,
2013-01-14 00:50:00,1.2,-10.9,27.37,North,0,0.0,0.0,56,0.00,CLR,,0.00,WeatherDisplay:10.37,2013-01-14 06:50:00,
2013-01-14 00:55:00,1.0,-11.0,27.37,North,0,0.0,0.0,56,0.00,CLR,,0.00,WeatherDisplay:10.37,2013-01-14 06:55:00,
2013-01-14 01:00:00,1.0,-11.0,27.37,North,0,0.0,0.0,56,0.00,CLR,,0.00,WeatherDisplay:10.37,2013-01-14 07:00:00,
2013-01-14 01:05:00,0.9,-11.6,27.37,North,0,0.0,0.0,55,0.00,CLR,,0.00,WeatherDisplay:10.37,2013-01-14 07:05:00,
2013-01-14 01:10:00,0.7,-11.7,27.37,North,0,1.1,0.0,55,0.00,CLR,,0.00,WeatherDisplay:10.37,2013-01-14 07:10:00,
2013-01-14 01:15:00,0.7,-11.7,27.36,North,0,1.1,1.1,55,0.00,CLR,,0.00,WeatherDisplay:10.37,2013-01-14 07:15:00,
2013-01-14 01:20:00,0.7,-11.4,27.36,North,0,1.1,0.0,56,0.00,CLR,,0.00,WeatherDisplay:10.37,2013-01-14 07:20:00,
2013-01-14 01:25:00,0.5,-11.5,27.37,North,0,1.1,0.0,56,0.00,CLR,,0.00,WeatherDisplay:10.37,2013-01-14 07:25:00,
2013-01-14 01:30:00,0.5,-11.5,27.37,North,0,1.1,0.0,56,0.00,CLR,,0.00,WeatherDisplay:10.37,2013-01-14 07:30:00,
2013-01-14 01:35:00,0.3,-11.7,27.37,North,0,1.1,1.1,56,0.00,CLR,,0.00,WeatherDisplay:10.37,2013-01-14 07:35:00,
2013-01-14 01:40:00,0.1,-11.9,27.37,North,0,0.0,0.0,56,0.00,CLR,,0.00,WeatherDisplay:10.37,2013-01-14 07:40:00,
2013-01-14 01:45:00,0.1,-11.9,27.37,North,0,0.0,0.0,56,0.00,CLR,,0.00,WeatherDisplay:10.37,2013-01-14 07:45:00,
2013-01-14 01:50:00,0.1,-11.9,27.37,North,0,1.1,1.1,56,0.00,CLR,,0.00,WeatherDisplay:10.37,2013-01-14 07:50:00,
2013-01-14 01:55:00,0.3,-11.7,27.37,North,0,2.3,0.0,56,0.00,CLR,,0.00,WeatherDisplay:10.37,2013-01-14 07:55:00,
2013-01-14 02:00:00,0.5,-11.5,27.37,North,0,1.1,0.0,56,0.00,CLR,,0.00,WeatherDisplay:10.37,2013-01-14 08:00:00,
2013-01-14 02:05:00,0.5,-11.5,27.37,North,0,0.0,0.0,56,0.00,CLR,,0.00,WeatherDisplay:10.37,2013-01-14 08:05:00,
2013-01-14 02:10:00,0.5,-11.5,27.37,NW,315,2.3,2.3,56,0.00,CLR,,0.00,WeatherDisplay:10.37,2013-01-14 08:10:00,
2013-01-14 02:15:00,0.1,-11.9,27.37,NW,315,1.1,1.1,56,0.00,CLR,,0.00,WeatherDisplay:10.37,2013-01-14 08:15:00,
2013-01-14 02:20:00,0.0,-12.0,27.37,NW,315,1.1,0.0,56,0.00,CLR,,0.00,WeatherDisplay:10.37,2013-01-14 08:20:00,
2013-01-14 02:25:00,-0.2,-12.2,27.37,NW,315,1.1,0.0,56,0.00,CLR,,0.00,WeatherDisplay:10.37,2013-01-14 08:25:00,
2013-01-14 02:30:00,-0.2,-12.2,27.37,NW,315,0.0,0.0,56,0.00,CLR,,0.00,WeatherDisplay:10.37,2013-01-14 08:30:00,
2013-01-14 02:35:00,0.0,-12.0,27.37,NW,315,3.5,3.5,56,0.00,CLR,,0.00,WeatherDisplay:10.37,2013-01-14 08:35:00,
2013-01-14 02:40:00,0.3,-11.3,27.37,NW,315,2.3,2.3,57,0.00,CLR,,0.00,WeatherDisplay:10.37,2013-01-14 08:40:00,
2013-01-14 02:45:00,0.5,-11.2,27.37,NW,315,1.1,1.1,57,0.00,CLR,,0.00,WeatherDisplay:10.37,2013-01-14 08:45:00,
2013-01-14 02:50:00,0.7,-11.0,27.37,NW,315,0.0,0.0,57,0.00,CLR,,0.00,WeatherDisplay:10.37,2013-01-14 08:50:00,
2013-01-14 02:55:00,0.5,-11.2,27.37,NW,315,0.0,0.0,57,0.00,CLR,,0.00,WeatherDisplay:10.37,2013-01-14 08:55:00,
2013-01-14 03:00:00,0.3,-11.3,27.37,NW,315,1.1,1.1,57,0.00,CLR,,0.00,WeatherDisplay:10.37,2013-01-14 09:00:00,
2013-01-14 03:05:00,0.5,-11.2,27.37,NW,315,2.3,2.3,57,0.00,CLR,,0.00,WeatherDisplay:10.37,2013-01-14 09:05:00,
2013-01-14 03:10:00,1.2,-10.1,27.37,NW,315,2.3,2.3,58,0.00,CLR,,0.00,WeatherDisplay:10.37,2013-01-14 09:10:00,
2013-01-14 03:15:00,1.2,-10.1,27.37,NW,315,1.1,0.0,58,0.00,CLR,,0.00,WeatherDisplay:10.37,2013-01-14 09:15:00,
2013-01-14 03:20:00,1.0,-10.3,27.37,NW,315,2.3,2.3,58,0.00,CLR,,0.00,WeatherDisplay:10.37,2013-01-14 09:20:00,
2013-01-14 03:25:00,1.0,-10.3,27.37,NW,315,1.1,1.1,58,0.00,CLR,,0.00,WeatherDisplay:10.37,2013-01-14 09:25:00,
2013-01-14 03:30:00,1.0,-10.7,27.38,NW,315,1.1,0.0,57,0.00,CLR,,0.00,WeatherDisplay:10.37,2013-01-14 09:30:00,
2013-01-14 03:35:00,1.0,-10.7,27.37,NW,315,2.3,2.3,57,0.00,CLR,,0.00,WeatherDisplay:10.37,2013-01-14 09:35:00,
2013-01-14 03:40:00,1.0,-10.7,27.38,NW,315,1.1,0.0,57,0.00,CLR,,0.00,WeatherDisplay:10.37,2013-01-14 09:40:00,
2013-01-14 03:45:00,1.0,-10.7,27.38,NW,315,1.1,1.1,57,0.00,CLR,,0.00,WeatherDisplay:10.37,2013-01-14 09:45:00,
2013-01-14 03:50:00,1.0,-10.7,27.37,NW,315,1.1,0.0,57,0.00,CLR,,0.00,WeatherDisplay:10.37,2013-01-14 09:50:00,
2013-01-14 03:55:00,0.9,-10.8,27.38,NW,315,1.1,1.1,57,0.00,CLR,,0.00,WeatherDisplay:10.37,2013-01-14 09:55:00,
2013-01-14 04:00:00,0.9,-10.8,27.38,NW,315,0.0,0.0,57,0.00,CLR,,0.00,WeatherDisplay:10.37,2013-01-14 10:00:00,
2013-01-14 04:05:00,0.9,-10.8,27.38,NW,315,0.0,0.0,57,0.00,CLR,,0.00,WeatherDisplay:10.37,2013-01-14 10:05:00,
2013-01-14 04:10:00,0.3,-11.7,27.38,NW,315,0.0,0.0,56,0.00,CLR,,0.00,WeatherDisplay:10.37,2013-01-14 10:10:00,
2013-01-14 04:15:00,0.0,-12.0,27.38,NW,315,1.1,1.1,56,0.00,CLR,,0.00,WeatherDisplay:10.37,2013-01-14 10:15:00,
2013-01-14 04:20:00,0.1,-11.9,27.38,NW,315,2.3,2.3,56,0.00,CLR,,0.00,WeatherDisplay:10.37,2013-01-14 10:20:00,
2013-01-14 04:25:00,0.1,-11.9,27.38,NW,315,0.0,0.0,56,0.00,CLR,,0.00,WeatherDisplay:10.37,2013-01-14 10:25:00,
2013-01-14 04:30:00,0.0,-12.0,27.38,NW,315,0.0,0.0,56,0.00,CLR,,0.00,WeatherDisplay:10.37,2013-01-14 10:30:00,
2013-01-14 04:35:00,-0.4,-12.4,27.38,NW,315,0.0,0.0,56,0.00,CLR,,0.00,WeatherDisplay:10.37,2013-01-14 10:35:00,
2013-01-14 04:40:00,-0.6,-12.6,27.38,NW,315,0.0,0.0,56,0.00,CLR,,0.00,WeatherDisplay:10.37,2013-01-14 10:40:00,
2013-01-14 04:45:00,-0.8,-12.7,27.37,NW,315,0.0,0.0,56,0.00,CLR,,0.00,WeatherDisplay:10.37,2013-01-14 10:45:00,
2013-01-14 04:50:00,-0.9,-12.9,27.38,NW,315,0.0,0.0,56,0.00,CLR,,0.00,WeatherDisplay:10.37,2013-01-14 10:50:00,
2013-01-14 04:55:00,-1.1,-13.1,27.37,NW,315,0.0,0.0,56,0.00,CLR,,0.00,WeatherDisplay:10.37,2013-01-14 10:55:00,
2013-01-14 05:01:00,-1.1,-13.1,27.37,NW,315,0.0,0.0,56,0.00,CLR,,0.00,WeatherDisplay:10.37,2013-01-14 11:01:00,
2013-01-14 05:05:00,-0.9,-12.9,27.37,NW,315,0.0,0.0,56,0.00,CLR,,0.00,WeatherDisplay:10.37,2013-01-14 11:05:00,
2013-01-14 05:11:00,-0.9,-12.9,27.37,NW,315,1.1,0.0,56,0.00,CLR,,0.00,WeatherDisplay:10.37,2013-01-14 11:11:00,
2013-01-14 05:16:00,-1.1,-13.1,27.37,NW,315,2.3,2.3,56,0.00,CLR,,0.00,WeatherDisplay:10.37,2013-01-14 11:16:00,
2013-01-14 05:21:00,-1.1,-13.1,27.37,NW,315,1.1,1.6,56,0.00,CLR,,0.00,WeatherDisplay:10.37,2013-01-14 11:21:00,
2013-01-14 05:26:00,-1.1,-13.1,27.37,NW,315,2.3,0.0,56,0.00,CLR,,0.00,WeatherDisplay:10.37,2013-01-14 11:26:00,
2013-01-14 05:31:00,-0.9,-12.5,27.37,NW,315,0.0,0.0,57,0.00,CLR,,0.00,WeatherDisplay:10.37,2013-01-14 11:31:00,
2013-01-14 05:36:00,-0.8,-12.4,27.37,NW,315,0.0,0.0,57,0.00,CLR,,0.00,WeatherDisplay:10.37,2013-01-14 11:36:00,
2013-01-14 05:41:00,-0.8,-12.4,27.37,NW,315,2.3,2.3,57,0.00,CLR,,0.00,WeatherDisplay:10.37,2013-01-14 11:41:00,
2013-01-14 05:46:00,-0.6,-12.2,27.37,NW,315,1.1,1.1,57,0.00,CLR,,0.00,WeatherDisplay:10.37,2013-01-14 11:46:00,
2013-01-14 05:51:00,-0.4,-12.4,27.37,NW,315,1.6,1.6,56,0.00,CLR,,0.00,WeatherDisplay:10.37,2013-01-14 11:51:00,
2013-01-14 05:56:00,-0.2,-12.2,27.37,NW,315,2.3,2.3,56,0.00,CLR,,0.00,WeatherDisplay:10.37,2013-01-14 11:56:00,
2013-01-14 06:01:00,0.1,-11.9,27.38,NW,315,2.3,2.3,56,0.00,CLR,,0.00,WeatherDisplay:10.37,2013-01-14 12:01:00,
2013-01-14 06:06:00,0.1,-11.9,27.38,NW,315,1.1,1.1,56,0.00,CLR,,0.00,WeatherDisplay:10.37,2013-01-14 12:06:00,
2013-01-14 06:11:00,0.7,-11.0,27.39,NW,315,0.0,0.0,57,0.00,CLR,,0.00,WeatherDisplay:10.37,2013-01-14 12:11:00,
2013-01-14 06:16:00,0.9,-10.8,27.39,NW,315,0.0,0.0,57,0.00,CLR,,0.00,WeatherDisplay:10.37,2013-01-14 12:16:00,
2013-01-14 06:21:00,1.0,-10.7,27.39,NW,315,0.0,0.0,57,0.00,CLR,,0.00,WeatherDisplay:10.37,2013-01-14 12:21:00,
2013-01-14 06:26:00,1.0,-10.7,27.39,NW,315,0.0,0.0,57,0.00,CLR,,0.00,WeatherDisplay:10.37,2013-01-14 12:26:00,
2013-01-14 06:31:00,1.0,-10.7,27.40,NW,315,0.0,0.0,57,0.00,CLR,,0.00,WeatherDisplay:10.37,2013-01-14 12:31:00,
2013-01-14 06:36:00,1.0,-10.7,27.40,NW,315,1.1,0.0,57,0.00,CLR,,0.00,WeatherDisplay:10.37,2013-01-14 12:36:00,
2013-01-14 06:41:00,1.0,-10.7,27.40,NW,315,0.0,0.0,57,0.00,CLR,,0.00,WeatherDisplay:10.37,2013-01-14 12:41:00,
2013-01-14 06:46:00,1.2,-10.5,27.40,NW,315,0.0,0.0,57,0.00,CLR,,0.00,WeatherDisplay:10.37,2013-01-14 12:46:00,
2013-01-14 06:51:00,1.4,-8.9,27.40,NW,315,1.1,0.0,61,0.00,CLR,,0.00,WeatherDisplay:10.37,2013-01-14 12:51:00,
2013-01-14 06:56:00,1.6,-8.8,27.40,NW,315,1.1,1.1,61,0.00,CLR,,0.00,WeatherDisplay:10.37,2013-01-14 12:56:00,
2013-01-14 07:01:00,1.8,-8.6,27.40,NW,315,2.3,2.3,61,0.00,CLR,,0.00,WeatherDisplay:10.37,2013-01-14 13:01:00,
2013-01-14 07:06:00,1.9,-8.4,27.40,NW,315,2.3,2.3,61,0.00,CLR,,0.00,WeatherDisplay:10.37,2013-01-14 13:06:00,
2013-01-14 07:11:00,1.9,-8.4,27.41,NW,315,1.1,0.0,61,0.00,CLR,,0.00,WeatherDisplay:10.37,2013-01-14 13:11:00,
2013-01-14 07:16:00,1.9,-8.4,27.41,NW,315,2.3,2.3,61,0.00,CLR,,0.00,WeatherDisplay:10.37,2013-01-14 13:16:00,
2013-01-14 07:21:00,1.9,-8.4,27.41,NW,315,1.1,1.1,61,0.00,CLR,,0.00,WeatherDisplay:10.37,2013-01-14 13:21:00,
2013-01-14 07:26:00,1.9,-8.4,27.41,NW,315,0.0,0.0,61,0.00,CLR,,0.00,WeatherDisplay:10.37,2013-01-14 13:26:00,
2013-01-14 07:31:00,1.9,-8.4,27.42,NW,315,0.0,0.0,61,0.00,CLR,,0.00,WeatherDisplay:10.37,2013-01-14 13:31:00,
2013-01-14 07:36:00,1.9,-8.4,27.42,NW,315,0.0,0.0,61,0.00,CLR,,0.00,WeatherDisplay:10.37,2013-01-14 13:36:00,
2013-01-14 07:41:00,1.9,-8.4,27.42,NW,315,1.1,0.0,61,0.00,CLR,,0.00,WeatherDisplay:10.37,2013-01-14 13:41:00,
2013-01-14 07:46:00,2.1,-8.3,27.43,NW,315,0.0,0.0,61,0.00,CLR,,0.00,WeatherDisplay:10.37,2013-01-14 13:46:00,
2013-01-14 07:51:00,2.1,-8.3,27.42,NW,315,0.0,0.0,61,0.00,CLR,,0.00,WeatherDisplay:10.37,2013-01-14 13:51:00,
2013-01-14 07:56:00,2.1,-8.3,27.42,NW,315,2.3,2.3,61,0.00,CLR,,0.00,WeatherDisplay:10.37,2013-01-14 13:56:00,
2013-01-14 08:01:00,2.3,-8.1,27.43,NW,315,0.0,0.0,61,0.00,CLR,,0.00,WeatherDisplay:10.37,2013-01-14 14:01:00,
2013-01-14 08:06:00,2.3,-8.1,27.43,NW,315,0.0,0.0,61,0.00,CLR,,0.00,WeatherDisplay:10.37,2013-01-14 14:06:00,
2013-01-14 08:11:00,2.3,-8.1,27.43,NW,315,2.3,0.0,61,0.00,CLR,,0.00,WeatherDisplay:10.37,2013-01-14 14:11:00,
2013-01-14 08:16:00,2.3,-8.1,27.43,NW,315,0.0,0.0,61,0.00,CLR,,0.00,WeatherDisplay:10.37,2013-01-14 14:16:00,
2013-01-14 08:21:00,2.3,-8.1,27.42,NW,315,0.0,0.0,61,0.00,CLR,,0.00,WeatherDisplay:10.37,2013-01-14 14:21:00,
2013-01-14 08:26:00,2.5,-7.9,27.43,NW,315,0.0,0.0,61,0.00,CLR,,0.00,WeatherDisplay:10.37,2013-01-14 14:26:00,
2013-01-14 08:31:00,2.3,-8.1,27.43,NW,315,0.0,0.0,61,0.00,CLR,,0.00,WeatherDisplay:10.37,2013-01-14 14:31:00,
2013-01-14 08:36:00,2.5,-7.9,27.43,NW,315,1.1,1.1,61,0.00,CLR,,0.00,WeatherDisplay:10.37,2013-01-14 14:36:00,
2013-01-14 08:41:00,2.7,-7.8,27.43,NW,315,1.1,1.1,61,0.00,CLR,,0.00,WeatherDisplay:10.37,2013-01-14 14:41:00,
2013-01-14 08:46:00,2.7,-7.8,27.42,NW,315,1.1,1.1,61,0.00,CLR,,0.00,WeatherDisplay:10.37,2013-01-14 14:46:00,
2013-01-14 08:51:00,2.8,-7.6,27.43,NW,315,3.5,3.5,61,0.00,CLR,,0.00,WeatherDisplay:10.37,2013-01-14 14:51:00,
2013-01-14 08:56:00,3.0,-7.4,27.43,NW,315,1.1,0.0,61,0.00,CLR,,0.00,WeatherDisplay:10.37,2013-01-14 14:56:00,
2013-01-14 09:01:00,3.2,-7.6,27.43,NW,315,2.3,2.3,60,0.00,CLR,,0.00,WeatherDisplay:10.37,2013-01-14 15:01:00,
2013-01-14 09:06:00,3.2,-7.6,27.43,NW,315,1.1,1.1,60,0.00,CLR,,0.00,WeatherDisplay:10.37,2013-01-14 15:06:00,
2013-01-14 09:11:00,3.6,-7.2,27.44,NW,315,3.5,3.5,60,0.00,CLR,,0.00,WeatherDisplay:10.37,2013-01-14 15:11:00,
2013-01-14 09:16:00,3.7,-7.1,27.43,NW,315,1.1,1.1,60,0.00,CLR,,0.00,WeatherDisplay:10.37,2013-01-14 15:16:00,
2013-01-14 09:21:00,4.3,-6.6,27.43,NW,315,2.3,2.3,60,0.00,CLR,,0.00,WeatherDisplay:10.37,2013-01-14 15:21:00,
2013-01-14 09:26:00,4.6,-6.2,27.44,NW,315,3.5,3.5,60,0.00,CLR,,0.00,WeatherDisplay:10.37,2013-01-14 15:26:00,
2013-01-14 09:31:00,5.0,-6.2,27.44,NW,315,2.3,2.3,59,0.00,CLR,,0.00,WeatherDisplay:10.37,2013-01-14 15:31:00,
2013-01-14 09:36:00,5.4,-5.9,27.43,NW,315,3.5,3.5,59,0.00,CLR,,0.00,WeatherDisplay:10.37,2013-01-14 15:36:00,
2013-01-14 09:41:00,5.7,-5.5,27.44,NW,315,2.3,2.3,59,0.00,CLR,,0.00,WeatherDisplay:10.37,2013-01-14 15:41:00,
2013-01-14 09:46:00,6.1,-5.2,27.44,NW,315,1.1,0.0,59,0.00,CLR,,0.00,WeatherDisplay:10.37,2013-01-14 15:46:00,
2013-01-14 09:51:00,7.0,-4.3,27.44,NW,315,1.1,0.0,59,0.00,CLR,,0.00,WeatherDisplay:10.37,2013-01-14 15:51:00,
2013-01-14 09:56:00,7.5,-3.8,27.44,NW,315,0.0,0.0,59,0.00,CLR,,0.00,WeatherDisplay:10.37,2013-01-14 15:56:00,
2013-01-14 10:01:00,7.9,-3.5,27.44,NW,315,1.1,1.1,59,0.00,CLR,,0.00,WeatherDisplay:10.37,2013-01-14 16:01:00,
2013-01-14 10:06:00,7.9,-3.5,27.43,NW,315,1.1,1.1,59,0.00,CLR,,0.00,WeatherDisplay:10.37,2013-01-14 16:06:00,
2013-01-14 10:11:00,8.6,-3.5,27.43,NW,315,2.3,2.3,57,0.00,CLR,,0.00,WeatherDisplay:10.37,2013-01-14 16:11:00,
2013-01-14 10:16:00,8.6,-3.5,27.43,NW,315,2.3,2.3,57,0.00,CLR,,0.00,WeatherDisplay:10.37,2013-01-14 16:16:00,
2013-01-14 10:21:00,8.6,-3.9,27.43,WNW,292,2.3,0.0,56,0.00,CLR,,0.00,WeatherDisplay:10.37,2013-01-14 16:21:00,
2013-01-14 10:26:00,8.8,-3.7,27.43,NW,315,2.3,2.3,56,0.00,CLR,,0.00,WeatherDisplay:10.37,2013-01-14 16:26:00,
2013-01-14 10:31:00,9.1,-3.0,27.43,North,0,2.3,2.3,57,0.00,CLR,,0.00,WeatherDisplay:10.37,2013-01-14 16:31:00,
2013-01-14 10:36:00,9.7,-2.5,27.42,North,0,2.3,2.3,57,0.00,CLR,,0.00,WeatherDisplay:10.37,2013-01-14 16:36:00,
2013-01-14 10:41:00,10.2,-2.0,27.42,North,0,2.3,2.3,57,0.00,CLR,,0.00,WeatherDisplay:10.37,2013-01-14 16:41:00,
2013-01-14 10:46:00,10.8,-0.1,27.42,North,0,2.3,2.3,61,0.00,CLR,,0.00,WeatherDisplay:10.37,2013-01-14 16:46:00,
2013-01-14 10:51:00,11.1,0.3,27.42,North,0,2.3,2.3,61,0.00,CLR,,0.00,WeatherDisplay:10.37,2013-01-14 16:51:00,
2013-01-14 10:57:00,11.3,0.1,27.42,North,0,1.1,1.1,60,0.00,CLR,,0.00,WeatherDisplay:10.37,2013-01-14 16:57:00,
2013-01-14 11:02:00,11.8,0.6,27.42,North,0,2.3,0.0,60,0.00,CLR,,0.00,WeatherDisplay:10.37,2013-01-14 17:02:00,
2013-01-14 11:07:00,12.2,0.6,27.41,North,0,2.3,2.3,59,0.00,CLR,,0.00,WeatherDisplay:10.37,2013-01-14 17:07:00,
2013-01-14 11:12:00,12.4,0.4,27.41,NW,315,2.3,2.3,58,0.00,CLR,,0.00,WeatherDisplay:10.37,2013-01-14 17:12:00,
2013-01-14 11:17:00,12.6,0.6,27.41,North,0,1.1,0.0,58,0.00,CLR,,0.00,WeatherDisplay:10.37,2013-01-14 17:17:00,
2013-01-14 11:22:00,12.7,0.7,27.41,NW,315,2.3,0.0,58,0.00,CLR,,0.00,WeatherDisplay:10.37,2013-01-14 17:22:00,
2013-01-14 11:27:00,13.1,1.1,27.41,North,0,1.1,1.1,58,0.00,CLR,,0.00,WeatherDisplay:10.37,2013-01-14 17:27:00,
2013-01-14 11:32:00,13.6,1.6,27.40,North,0,1.1,1.1,58,0.00,CLR,,0.00,WeatherDisplay:10.37,2013-01-14 17:32:00,
2013-01-14 11:37:00,14.2,1.7,27.40,NW,315,2.3,2.3,57,0.00,CLR,,0.00,WeatherDisplay:10.37,2013-01-14 17:37:00,
2013-01-14 11:42:00,14.5,2.1,27.40,NW,315,2.3,2.3,57,0.00,CLR,,0.00,WeatherDisplay:10.37,2013-01-14 17:42:00,
2013-01-14 11:47:00,15.1,2.6,27.40,NW,315,3.5,3.5,57,0.00,CLR,,0.00,WeatherDisplay:10.37,2013-01-14 17:47:00,
2013-01-14 11:52:00,16.0,3.4,27.39,NW,315,2.3,2.3,57,0.00,CLR,,0.00,WeatherDisplay:10.37,2013-01-14 17:52:00,
2013-01-14 11:57:00,16.7,4.1,27.39,North,0,3.5,3.5,57,0.00,CLR,,0.00,WeatherDisplay:10.37,2013-01-14 17:57:00,
2013-01-14 12:02:00,17.4,4.8,27.39,North,0,2.3,2.3,57,0.00,CLR,,0.00,WeatherDisplay:10.37,2013-01-14 18:02:00,
2013-01-14 12:07:00,17.4,4.8,27.38,North,0,2.3,2.3,57,0.00,CLR,,0.00,WeatherDisplay:10.37,2013-01-14 18:07:00,
2013-01-14 12:12:00,19.2,5.3,27.38,NNW,338,2.3,0.0,54,0.00,CLR,,0.00,WeatherDisplay:10.37,2013-01-14 18:12:00,
2013-01-14 12:17:00,19.6,6.8,27.37,NW,315,1.1,0.0,57,0.00,CLR,,0.00,WeatherDisplay:10.37,2013-01-14 18:17:00,
2013-01-14 12:22:00,20.1,7.3,27.37,NW,315,1.6,1.6,57,0.00,CLR,,0.00,WeatherDisplay:10.37,2013-01-14 18:22:00,
2013-01-14 12:27:00,20.8,8.0,27.37,West,270,1.1,0.0,57,0.00,CLR,,0.00,WeatherDisplay:10.37,2013-01-14 18:27:00,
2013-01-14 12:32:00,21.2,7.1,27.37,NW,315,3.1,3.1,54,0.00,CLR,,0.00,WeatherDisplay:10.37,2013-01-14 18:32:00,
2013-01-14 12:37:00,20.8,7.2,27.36,NE,45,1.1,1.1,55,0.00,CLR,,0.00,WeatherDisplay:10.37,2013-01-14 18:37:00,
2013-01-14 12:42:00,21.4,7.3,27.36,North,0,1.1,0.0,54,0.00,CLR,,0.00,WeatherDisplay:10.37,2013-01-14 18:42:00,
2013-01-14 12:47:00,21.7,7.6,27.35,NW,315,0.0,0.0,54,0.00,CLR,,0.00,WeatherDisplay:10.37,2013-01-14 18:47:00,
2013-01-14 12:52:00,22.3,7.7,27.36,NW,315,1.1,0.0,53,0.00,CLR,,0.00,WeatherDisplay:10.37,2013-01-14 18:52:00,
2013-01-14 12:57:00,23.2,8.6,27.35,NE,45,1.1,0.0,53,0.00,CLR,,0.00,WeatherDisplay:10.37,2013-01-14 18:57:00,
2013-01-14 13:02:00,23.9,9.2,27.34,South,180,1.1,0.0,53,0.04,RA,,0.04,WeatherDisplay:10.37,2013-01-14 19:02:00,
2013-01-14 13:07:00,24.6,9.9,27.34,SE,135,3.5,3.5,53,0.04,RA,,0.04,WeatherDisplay:10.37,2013-01-14 19:07:00,
2013-01-14 13:12:00,25.2,9.5,27.34,South,180,4.6,4.6,51,0.04,CLR,,0.04,WeatherDisplay:10.37,2013-01-14 19:12:00,
2013-01-14 13:17:00,25.3,9.3,27.34,South,180,2.2,2.2,50,0.04,CLR,,0.04,WeatherDisplay:10.37,2013-01-14 19:17:00,
2013-01-14 13:22:00,26.2,10.1,27.33,SW,225,2.3,2.3,50,0.04,CLR,,0.04,WeatherDisplay:10.37,2013-01-14 19:22:00,
2013-01-14 13:27:00,27.0,9.4,27.32,SE,135,2.3,2.3,47,0.04,CLR,,0.04,WeatherDisplay:10.37,2013-01-14 19:27:00,
2013-01-14 13:32:00,27.3,9.7,27.32,South,180,4.6,4.6,47,0.04,CLR,,0.04,WeatherDisplay:10.37,2013-01-14 19:32:00,
2013-01-14 13:37:00,27.3,9.7,27.32,South,180,2.3,2.3,47,0.04,CLR,,0.04,WeatherDisplay:10.37,2013-01-14 19:37:00,
2013-01-14 13:42:00,27.1,9.1,27.32,SE,135,3.5,3.5,46,0.04,CLR,,0.04,WeatherDisplay:10.37,2013-01-14 19:42:00,
2013-01-14 13:47:00,26.8,9.2,27.32,South,180,5.8,5.8,47,0.04,CLR,,0.04,WeatherDisplay:10.37,2013-01-14 19:47:00,
2013-01-14 13:52:00,26.6,9.1,27.32,SW,225,3.5,3.5,47,0.04,CLR,,0.04,WeatherDisplay:10.37,2013-01-14 19:52:00,
2013-01-14 13:57:00,27.0,9.9,27.32,South,180,3.5,3.5,48,0.04,CLR,,0.04,WeatherDisplay:10.37,2013-01-14 19:57:00,
2013-01-14 14:02:00,27.0,9.9,27.31,South,180,3.5,3.5,48,0.00,CLR,,0.04,WeatherDisplay:10.37,2013-01-14 20:02:00,
2013-01-14 14:07:00,26.8,10.1,27.31,South,180,3.5,3.5,49,0.00,CLR,,0.04,WeatherDisplay:10.37,2013-01-14 20:07:00,
2013-01-14 14:12:00,27.0,9.9,27.31,NW,315,2.3,2.3,48,0.00,CLR,,0.04,WeatherDisplay:10.37,2013-01-14 20:12:00,
2013-01-14 14:17:00,27.1,10.0,27.31,SW,225,3.5,3.5,48,0.00,CLR,,0.04,WeatherDisplay:10.37,2013-01-14 20:17:00,
2013-01-14 14:22:00,26.8,9.2,27.31,SE,135,4.6,4.6,47,0.00,CLR,,0.04,WeatherDisplay:10.37,2013-01-14 20:22:00,
2013-01-14 14:27:00,26.2,9.2,27.31,South,180,3.5,3.5,48,0.00,CLR,,0.04,WeatherDisplay:10.37,2013-01-14 20:27:00,
2013-01-14 14:32:00,26.2,9.6,27.31,SE,135,3.5,3.5,49,0.00,CLR,,0.04,WeatherDisplay:10.37,2013-01-14 20:32:00,
2013-01-14 14:37:00,26.1,9.5,27.31,SW,225,4.6,4.6,49,0.00,CLR,,0.04,WeatherDisplay:10.37,2013-01-14 20:37:00,
2013-01-14 14:42:00,26.1,9.5,27.30,NE,45,4.6,0.0,49,0.00,CLR,,0.04,WeatherDisplay:10.37,2013-01-14 20:42:00,
2013-01-14 14:47:00,26.2,10.1,27.30,NW,315,1.1,0.0,50,0.00,CLR,,0.04,WeatherDisplay:10.37,2013-01-14 20:47:00,
2013-01-14 14:52:00,26.6,10.0,27.30,South,180,3.5,3.5,49,0.00,CLR,,0.04,WeatherDisplay:10.37,2013-01-14 20:52:00,
2013-01-14 14:57:00,26.6,10.0,27.30,SE,135,3.5,3.5,49,0.00,CLR,,0.04,WeatherDisplay:10.37,2013-01-14 20:57:00,
2013-01-14 15:02:00,26.8,10.1,27.30,SE,135,3.5,3.5,49,0.00,CLR,,0.04,WeatherDisplay:10.37,2013-01-14 21:02:00,
2013-01-14 15:07:00,26.8,10.1,27.30,SE,135,3.5,3.5,49,0.00,CLR,,0.04,WeatherDisplay:10.37,2013-01-14 21:07:00,
2013-01-14 15:12:00,27.0,10.3,27.30,North,0,2.3,2.3,49,0.00,CLR,,0.04,WeatherDisplay:10.37,2013-01-14 21:12:00,
2013-01-14 15:17:00,27.0,9.9,27.30,East,90,2.3,2.3,48,0.00,CLR,,0.04,WeatherDisplay:10.37,2013-01-14 21:17:00,
2013-01-14 15:22:00,27.0,9.9,27.30,NE,45,1.1,1.1,48,0.00,CLR,,0.04,WeatherDisplay:10.37,2013-01-14 21:22:00,
2013-01-14 15:27:00,27.0,10.3,27.30,NE,45,3.5,3.5,49,0.00,CLR,,0.04,WeatherDisplay:10.37,2013-01-14 21:27:00,
2013-01-14 15:32:00,27.0,10.3,27.30,NE,45,1.1,0.0,49,0.00,CLR,,0.04,WeatherDisplay:10.37,2013-01-14 21:32:00,
2013-01-14 15:37:00,26.8,9.7,27.30,North,0,1.1,0.0,48,0.00,CLR,,0.04,WeatherDisplay:10.37,2013-01-14 21:37:00,
2013-01-14 15:42:00,26.8,9.7,27.31,East,90,2.3,0.0,48,0.00,CLR,,0.04,WeatherDisplay:10.37,2013-01-14 21:42:00,
2013-01-14 15:47:00,26.6,10.0,27.31,South,180,3.5,3.5,49,0.00,CLR,,0.04,WeatherDisplay:10.37,2013-01-14 21:47:00,
2013-01-14 15:52:00,26.2,10.1,27.31,North,0,3.1,3.1,50,0.00,CLR,,0.04,WeatherDisplay:10.37,2013-01-14 21:52:00,
2013-01-14 15:57:00,25.9,9.8,27.31,East,90,1.1,0.0,50,0.00,CLR,,0.04,WeatherDisplay:10.37,2013-01-14 21:57:00,
2013-01-14 16:02:00,25.7,9.6,27.31,North,0,1.1,0.0,50,0.00,CLR,,0.04,WeatherDisplay:10.37,2013-01-14 22:02:00,
2013-01-14 16:07:00,25.7,10.5,27.31,NE,45,1.1,0.0,52,0.00,CLR,,0.04,WeatherDisplay:10.37,2013-01-14 22:07:00,
2013-01-14 16:12:00,25.7,10.5,27.31,SE,135,1.1,0.0,52,0.00,CLR,,0.04,WeatherDisplay:10.37,2013-01-14 22:12:00,
2013-01-14 16:18:00,25.5,10.3,27.31,NE,45,1.1,0.0,52,0.00,CLR,,0.04,WeatherDisplay:10.37,2013-01-14 22:18:00,
2013-01-14 16:23:00,25.2,10.0,27.31,SE,135,1.1,0.0,52,0.00,CLR,,0.04,WeatherDisplay:10.37,2013-01-14 22:23:00,
2013-01-14 16:28:00,25.0,9.8,27.31,North,0,0.0,0.0,52,0.00,CLR,,0.04,WeatherDisplay:10.37,2013-01-14 22:28:00,
2013-01-14 16:33:00,24.8,9.6,27.31,North,0,0.0,0.0,52,0.00,CLR,,0.04,WeatherDisplay:10.37,2013-01-14 22:33:00,
2013-01-14 16:38:00,24.8,9.6,27.31,NE,45,0.0,0.0,52,0.00,CLR,,0.04,WeatherDisplay:10.37,2013-01-14 22:38:00,
2013-01-14 16:43:00,24.8,10.1,27.32,South,180,0.0,0.0,53,0.00,CLR,,0.04,WeatherDisplay:10.37,2013-01-14 22:43:00,
2013-01-14 16:48:00,24.8,10.1,27.32,South,180,1.6,1.6,53,0.00,CLR,,0.04,WeatherDisplay:10.37,2013-01-14 22:48:00,
2013-01-14 16:53:00,24.6,10.3,27.32,East,90,0.0,0.0,54,0.00,CLR,,0.04,WeatherDisplay:10.37,2013-01-14 22:53:00,
2013-01-14 16:58:00,24.4,10.6,27.32,NE,45,1.1,0.0,55,0.00,CLR,,0.04,WeatherDisplay:10.37,2013-01-14 22:58:00,
2013-01-14 17:03:00,24.4,10.6,27.32,North,0,0.0,0.0,55,0.00,CLR,,0.04,WeatherDisplay:10.37,2013-01-14 23:03:00,
2013-01-14 17:08:00,24.1,10.2,27.32,North,0,0.0,0.0,55,0.00,CLR,,0.04,WeatherDisplay:10.37,2013-01-14 23:08:00,
2013-01-14 17:13:00,23.9,10.1,27.32,NE,45,1.1,0.0,55,0.00,CLR,,0.04,WeatherDisplay:10.37,2013-01-14 23:13:00,
2013-01-14 17:18:00,23.7,10.3,27.32,NE,45,0.0,0.0,56,0.00,CLR,,0.04,WeatherDisplay:10.37,2013-01-14 23:18:00,
2013-01-14 17:23:00,23.7,10.3,27.32,SW,225,0.0,0.0,56,0.00,CLR,,0.04,WeatherDisplay:10.37,2013-01-14 23:23:00,
2013-01-14 17:28:00,23.5,10.5,27.33,East,90,1.1,0.0,57,0.00,CLR,,0.04,WeatherDisplay:10.37,2013-01-14 23:28:00,
2013-01-14 17:33:00,23.2,10.6,27.33,SE,135,0.0,0.0,58,0.00,CLR,,0.04,WeatherDisplay:10.37,2013-01-14 23:33:00,
2013-01-14 17:38:00,23.0,10.4,27.32,SE,135,1.1,0.0,58,0.00,CLR,,0.04,WeatherDisplay:10.37,2013-01-14 23:38:00,
2013-01-14 17:43:00,22.8,11.0,27.32,SE,135,0.0,0.0,60,0.00,CLR,,0.04,WeatherDisplay:10.37,2013-01-14 23:43:00,
2013-01-14 17:48:00,22.6,11.2,27.33,South,180,1.1,1.1,61,0.00,CLR,,0.04,WeatherDisplay:10.37,2013-01-14 23:48:00,
2013-01-14 17:53:00,22.3,11.2,27.33,South,180,1.1,0.0,62,0.00,CLR,,0.04,WeatherDisplay:10.37,2013-01-14 23:53:00,
2013-01-14 17:58:00,22.3,11.2,27.33,South,180,0.0,0.0,62,0.00,CLR,,0.04,WeatherDisplay:10.37,2013-01-14 23:58:00,
2013-01-14 18:03:00,22.1,11.4,27.33,East,90,0.0,0.0,63,0.00,CLR,,0.04,WeatherDisplay:10.37,2013-01-15 00:03:00,
2013-01-14 18:08:00,21.7,11.4,27.33,SE,135,1.1,1.1,64,0.00,CLR,,0.04,WeatherDisplay:10.37,2013-01-15 00:08:00,
2013-01-14 18:13:00,21.6,11.3,27.33,SE,135,2.3,2.3,64,0.00,CLR,,0.04,WeatherDisplay:10.37,2013-01-15 00:13:00,
2013-01-14 18:18:00,21.4,11.4,27.33,SE,135,1.1,0.0,65,0.00,CLR,,0.04,WeatherDisplay:10.37,2013-01-15 00:18:00,
2013-01-14 18:23:00,21.2,11.3,27.34,SE,135,2.3,2.3,65,0.00,CLR,,0.04,WeatherDisplay:10.37,2013-01-15 00:23:00,
2013-01-14 18:28:00,21.0,11.8,27.33,South,180,3.5,0.0,67,0.00,CLR,,0.04,WeatherDisplay:10.37,2013-01-15 00:28:00,
2013-01-14 18:33:00,20.8,11.6,27.34,North,0,0.0,0.0,67,0.00,CLR,,0.04,WeatherDisplay:10.37,2013-01-15 00:33:00,
2013-01-14 18:38:00,20.7,11.4,27.34,SE,135,1.1,0.0,67,0.00,CLR,,0.04,WeatherDisplay:10.37,2013-01-15 00:38:00,
2013-01-14 18:43:00,20.7,11.8,27.34,East,90,0.0,0.0,68,0.00,CLR,,0.04,WeatherDisplay:10.37,2013-01-15 00:43:00,
2013-01-14 18:48:00,20.5,11.6,27.34,East,90,0.0,0.0,68,0.00,CLR,,0.04,WeatherDisplay:10.37,2013-01-15 00:48:00,
2013-01-14 18:53:00,20.3,11.4,27.34,SE,135,2.3,0.0,68,0.00,CLR,,0.04,WeatherDisplay:10.37,2013-01-15 00:53:00,
2013-01-14 18:58:00,20.1,11.2,27.34,South,180,1.1,1.1,68,0.00,CLR,,0.04,WeatherDisplay:10.37,2013-01-15 00:58:00,
2013-01-14 19:03:00,20.1,11.2,27.34,SE,135,1.1,1.1,68,0.00,CLR,,0.04,WeatherDisplay:10.37,2013-01-15 01:03:00,
2013-01-14 19:08:00,19.9,11.4,27.34,South,180,2.3,2.3,69,0.00,CLR,,0.04,WeatherDisplay:10.37,2013-01-15 01:08:00,
2013-01-14 19:13:00,19.8,11.2,27.34,SW,225,1.1,0.0,69,0.00,CLR,,0.04,WeatherDisplay:10.37,2013-01-15 01:13:00,
2013-01-14 19:18:00,19.6,11.1,27.34,SE,135,0.0,0.0,69,0.00,CLR,,0.04,WeatherDisplay:10.37,2013-01-15 01:18:00,
2013-01-14 19:23:00,19.2,9.4,27.34,South,180,0.0,0.0,65,0.00,CLR,,0.04,WeatherDisplay:10.37,2013-01-15 01:23:00,
2013-01-14 19:28:00,19.0,9.2,27.34,North,0,0.0,0.0,65,0.00,CLR,,0.04,WeatherDisplay:10.37,2013-01-15 01:28:00,
2013-01-14 19:33:00,19.0,9.5,27.34,North,0,0.0,0.0,66,0.00,CLR,,0.04,WeatherDisplay:10.37,2013-01-15 01:33:00,
2013-01-14 19:38:00,18.9,9.4,27.34,North,0,0.0,0.0,66,0.00,CLR,,0.04,WeatherDisplay:10.37,2013-01-15 01:38:00,
2013-01-14 19:43:00,18.7,9.2,27.34,North,0,0.0,0.0,66,0.00,CLR,,0.04,WeatherDisplay:10.37,2013-01-15 01:43:00,
2013-01-14 19:48:00,18.5,9.0,27.34,North,0,0.0,0.0,66,0.00,CLR,,0.04,WeatherDisplay:10.37,2013-01-15 01:48:00,
2013-01-14 19:53:00,18.5,9.0,27.34,North,0,0.0,0.0,66,0.00,CLR,,0.04,WeatherDisplay:10.37,2013-01-15 01:53:00,
2013-01-14 19:58:00,18.5,9.0,27.34,North,0,0.0,0.0,66,0.00,CLR,,0.04,WeatherDisplay:10.37,2013-01-15 01:58:00,
2013-01-14 20:03:00,18.5,9.0,27.34,North,0,0.0,0.0,66,0.00,CLR,,0.04,WeatherDisplay:10.37,2013-01-15 02:03:00,
2013-01-14 20:08:00,18.5,9.4,27.34,North,0,0.0,0.0,67,0.00,CLR,,0.04,WeatherDisplay:10.37,2013-01-15 02:08:00,
2013-01-14 20:13:00,18.5,9.4,27.34,North,0,0.0,0.0,67,0.00,CLR,,0.04,WeatherDisplay:10.37,2013-01-15 02:13:00,
2013-01-14 20:18:00,18.5,9.4,27.34,East,90,0.0,0.0,67,0.00,CLR,,0.04,WeatherDisplay:10.37,2013-01-15 02:18:00,
2013-01-14 20:23:00,18.5,9.4,27.33,East,90,0.0,0.0,67,0.00,CLR,,0.04,WeatherDisplay:10.37,2013-01-15 02:23:00,
2013-01-14 20:28:00,18.5,9.4,27.33,North,0,0.0,0.0,67,0.00,CLR,,0.04,WeatherDisplay:10.37,2013-01-15 02:28:00,
2013-01-14 20:33:00,18.5,9.4,27.33,North,0,0.0,0.0,67,0.00,CLR,,0.04,WeatherDisplay:10.37,2013-01-15 02:33:00,
2013-01-14 20:38:00,18.3,9.2,27.33,North,0,0.0,0.0,67,0.00,CLR,,0.04,WeatherDisplay:10.37,2013-01-15 02:38:00,
2013-01-14 20:43:00,18.3,9.2,27.33,North,0,0.0,0.0,67,0.00,CLR,,0.04,WeatherDisplay:10.37,2013-01-15 02:43:00,
2013-01-14 20:48:00,18.1,9.0,27.33,North,0,0.0,0.0,67,0.00,CLR,,0.04,WeatherDisplay:10.37,2013-01-15 02:48:00,
2013-01-14 20:53:00,18.1,9.0,27.33,North,0,0.0,0.0,67,0.00,CLR,,0.04,WeatherDisplay:10.37,2013-01-15 02:53:00,
2013-01-14 20:58:00,18.1,9.0,27.33,North,0,0.0,0.0,67,0.00,CLR,,0.04,WeatherDisplay:10.37,2013-01-15 02:58:00,
2013-01-14 21:03:00,18.1,9.0,27.32,North,0,0.0,0.0,67,0.00,CLR,,0.04,WeatherDisplay:10.37,2013-01-15 03:03:00,
2013-01-14 21:08:00,18.1,9.0,27.32,North,0,0.0,0.0,67,0.00,CLR,,0.04,WeatherDisplay:10.37,2013-01-15 03:08:00,
2013-01-14 21:13:00,18.1,9.0,27.32,East,90,0.0,0.0,67,0.00,CLR,,0.04,WeatherDisplay:10.37,2013-01-15 03:13:00,
2013-01-14 21:18:00,18.1,9.0,27.32,South,180,0.0,0.0,67,0.00,CLR,,0.04,WeatherDisplay:10.37,2013-01-15 03:18:00,
2013-01-14 21:23:00,18.0,9.2,27.32,South,180,0.0,0.0,68,0.00,CLR,,0.04,WeatherDisplay:10.37,2013-01-15 03:23:00,
2013-01-14 21:28:00,18.0,9.2,27.32,South,180,0.0,0.0,68,0.00,CLR,,0.04,WeatherDisplay:10.37,2013-01-15 03:28:00,
2013-01-14 21:33:00,17.8,9.0,27.32,South,180,0.0,0.0,68,0.00,CLR,,0.04,WeatherDisplay:10.37,2013-01-15 03:33:00,
2013-01-14 21:38:00,17.6,8.8,27.32,South,180,0.0,0.0,68,0.00,CLR,,0.04,WeatherDisplay:10.37,2013-01-15 03:38:00,
2013-01-14 21:43:00,17.6,8.5,27.32,South,180,0.0,0.0,67,0.00,CLR,,0.04,WeatherDisplay:10.37,2013-01-15 03:43:00,
2013-01-14 21:48:00,17.4,8.7,27.32,South,180,0.0,0.0,68,0.00,CLR,,0.04,WeatherDisplay:10.37,2013-01-15 03:48:00,
2013-01-14 21:53:00,17.2,8.5,27.32,South,180,0.0,0.0,68,0.00,CLR,,0.04,WeatherDisplay:10.37,2013-01-15 03:53:00,
2013-01-14 21:58:00,17.2,8.5,27.32,South,180,0.0,0.0,68,0.00,CLR,,0.04,WeatherDisplay:10.37,2013-01-15 03:58:00,
2013-01-14 22:03:00,17.2,8.5,27.31,South,180,0.0,0.0,68,0.00,CLR,,0.04,WeatherDisplay:10.37,2013-01-15 04:03:00,
2013-01-14 22:08:00,17.2,8.5,27.31,South,180,0.0,0.0,68,0.00,CLR,,0.04,WeatherDisplay:10.37,2013-01-15 04:08:00,
2013-01-14 22:13:00,17.2,8.8,27.32,South,180,0.0,0.0,69,0.00,CLR,,0.04,WeatherDisplay:10.37,2013-01-15 04:13:00,
2013-01-14 22:19:00,17.2,8.8,27.32,South,180,0.0,0.0,69,0.00,CLR,,0.04,WeatherDisplay:10.37,2013-01-15 04:19:00,
2013-01-14 22:24:00,17.4,9.0,27.32,South,180,0.0,0.0,69,0.00,CLR,,0.04,WeatherDisplay:10.37,2013-01-15 04:24:00,
2013-01-14 22:29:00,17.4,9.0,27.31,South,180,0.0,0.0,69,0.00,CLR,,0.04,WeatherDisplay:10.37,2013-01-15 04:29:00,
2013-01-14 22:34:00,17.4,9.0,27.32,South,180,0.0,0.0,69,0.00,CLR,,0.04,WeatherDisplay:10.37,2013-01-15 04:34:00,
2013-01-14 22:39:00,17.6,8.8,27.32,South,180,0.0,0.0,68,0.00,CLR,,0.04,WeatherDisplay:10.37,2013-01-15 04:39:00,
2013-01-14 22:44:00,17.6,8.8,27.32,South,180,0.0,0.0,68,0.00,CLR,,0.04,WeatherDisplay:10.37,2013-01-15 04:44:00,
2013-01-14 22:49:00,17.6,8.8,27.32,East,90,0.0,0.0,68,0.00,CLR,,0.04,WeatherDisplay:10.37,2013-01-15 04:49:00,
2013-01-14 22:54:00,17.6,8.8,27.32,East,90,0.0,0.0,68,0.00,CLR,,0.04,WeatherDisplay:10.37,2013-01-15 04:54:00,
2013-01-14 22:59:00,17.6,8.8,27.32,East,90,0.0,0.0,68,0.00,CLR,,0.04,WeatherDisplay:10.37,2013-01-15 04:59:00,
2013-01-14 23:01:00,17.6,8.8,27.31,East,90,0.0,0.0,68,0.00,CLR,,0.04,WeatherDisplay:10.37,2013-01-15 05:01:00,
2013-01-14 23:03:00,17.6,8.8,27.32,East,90,0.0,0.0,68,0.00,CLR,,0.04,WeatherDisplay:10.37,2013-01-15 05:03:00,
2013-01-14 23:08:00,17.6,8.8,27.32,SE,135,0.0,0.0,68,0.00,CLR,,0.04,WeatherDisplay:10.37,2013-01-15 05:08:00,
2013-01-14 23:13:00,17.6,8.8,27.32,North,0,0.0,0.0,68,0.00,CLR,,0.04,WeatherDisplay:10.37,2013-01-15 05:13:00,
2013-01-14 23:18:00,17.6,8.8,27.32,East,90,0.0,0.0,68,0.00,CLR,,0.04,WeatherDisplay:10.37,2013-01-15 05:18:00,
2013-01-14 23:23:00,17.6,8.8,27.32,East,90,0.0,0.0,68,0.00,CLR,,0.04,WeatherDisplay:10.37,2013-01-15 05:23:00,
2013-01-14 23:28:00,17.6,8.8,27.32,North,0,0.0,0.0,68,0.00,CLR,,0.04,WeatherDisplay:10.37,2013-01-15 05:28:00,
2013-01-14 23:33:00,17.6,9.2,27.32,North,0,0.0,0.0,69,0.00,CLR,,0.04,WeatherDisplay:10.37,2013-01-15 05:33:00,
2013-01-14 23:38:00,17.6,9.2,27.32,North,0,0.0,0.0,69,0.00,CLR,,0.04,WeatherDisplay:10.37,2013-01-15 05:38:00,
2013-01-14 23:43:00,17.6,9.2,27.32,North,0,0.0,0.0,69,0.00,CLR,,0.04,WeatherDisplay:10.37,2013-01-15 05:43:00,
2013-01-14 23:48:00,17.6,9.2,27.32,North,0,0.0,0.0,69,0.00,CLR,,0.04,WeatherDisplay:10.37,2013-01-15 05:48:00,
2013-01-14 23:53:00,17.4,9.3,27.32,North,0,0.0,0.0,70,0.00,CLR,,0.04,WeatherDisplay:10.37,2013-01-15 05:53:00,
2013-01-14 23:58:00,17.4,9.3,27.32,North,0,0.0,0.0,70,0.00,CLR,,0.04,WeatherDisplay:10.37,2013-01-15 05:58:00,